Ashland, KS

2:24 PM CDT on September 01, 2014 (GMT -0500)
Dodge City Regional | Change Station
CLOSE
Current Station
Airport
Location: Dodge City,
Elevation: 2592 ft
Nearby Weather Stations

Elev 2592 ft 37.76 °N, 99.97 °W | Updated 32 minutes ago

Overcast
Overcast
75 °F
Feels Like 75 °F
N
14
Wind Variable Wind from NE

Today
High -- | Low -- °F
--% Chance of Precip.
Yesterday
High -- | Low -- °F
Precip. -- in
7:09 AM 8:07 PM
Waxing Crescent, 43% visible
Pressure 29.85 in
Visibility 10.0 miles
Clouds Overcast 1800 ft
Dew Point 62 °F
Humidity 64%
Rainfall 0.00 in
Snow Depth Not available.
UV 3 out of 12
Pollen 10.80 out of 12
Air Quality Not available.
Flu Activity Not available.
METAR KDDC 011852Z AUTO 05012KT 10SM OVC018 24/17 A2993 RMK AO2 SLP108 T02390167

More Conditions Fewer Conditions

Pressure 29.85 in
Visibility 10.0 miles
Clouds Overcast 1800 ft
Dew Point 62 °F
Humidity 64%
Rainfall 0.00 in
Snow Depth Not available.
UV 3 out of 12
Pollen 10.80 out of 12
Air Quality Not available.
Flu Activity Not available.
METAR KDDC 011852Z AUTO 05012KT 10SM OVC018 24/17 A2993 RMK AO2 SLP108 T02390167

More Conditions Fewer Conditions

10-Day Weather Forecast

Almanac

Astronomy

Sep. 01, 2014 Rise Set
Actual Time 7:09 AM CDT 8:07 PM CDT
Civil Twilight 6:43 AM CDT 8:34 PM CDT
Nautical Twilight 6:11 AM CDT 9:05 PM CDT
Astronomical Twilight 5:38 AM CDT 9:38 PM CDT
Moon 1:48 PM CDT No Moon Set
Length of Visible Light 13h 51m
Length of Day
12h 57m
Tomorrow will be 2m 17s shorter.
Waxing Crescent, 43% of the Moon is Illuminated
Today
Waxing Crescent
Sep 2
First Quarter
Sep 8
Full
Sep 15
Last Quarter
Sep 24
New

Today's Extremes

State Highs State Lows

Community

WunderPhotos

Upload Photos

1,749,378 photos uploaded!

WunderBlogs® & News

Nearby

Snow Depth

Station Depth Elevation
No new snow has been reported.

Earthquake Activity

City Distance Mag. Time & Date
Enid, Oklahoma 107 miles 3.4 11:57 AM CDT
2014-08-31
Enid, Oklahoma 106 miles 3.7 2:20 AM CDT
2014-08-31
Minimum magnitude displayed is 2.5.

Coastal Water Temperatures

Place Temperature
No Stations Reporting

Nearby Weather Stations